createdAt,value
2023-01-23T00:01:56.228Z,11.97
2023-01-23T00:04:23.770Z,12.03
2023-01-23T00:06:52.543Z,12.30
2023-01-23T00:12:22.756Z,12.40
2023-01-23T00:14:50.178Z,12.17
2023-01-23T00:17:17.576Z,11.80
2023-01-23T00:19:45.302Z,11.73
2023-01-23T00:25:03.438Z,11.97
2023-01-23T00:27:30.905Z,11.90
2023-01-23T00:29:58.988Z,12.20
2023-01-23T00:32:26.599Z,11.90
2023-01-23T00:37:57.817Z,11.70
2023-01-23T00:40:26.600Z,12.60
2023-01-23T00:42:54.422Z,12.30
2023-01-23T00:45:23.252Z,12.80
2023-01-23T00:50:38.788Z,12.03
2023-01-23T00:53:06.409Z,13.27
2023-01-23T00:55:35.227Z,13.27
2023-01-23T00:58:02.759Z,12.97
2023-01-23T01:03:19.282Z,12.90
2023-01-23T01:05:46.891Z,13.47
2023-01-23T01:08:14.352Z,12.43
2023-01-23T01:10:43.534Z,13.30
2023-01-23T01:16:10.446Z,12.60
2023-01-23T01:18:38.933Z,12.77
2023-01-23T01:21:07.871Z,12.87
2023-01-23T01:23:35.884Z,11.90
2023-01-23T01:28:53.084Z,12.20
2023-01-23T01:31:20.561Z,11.73
2023-01-23T01:33:48.141Z,12.53
2023-01-23T01:36:17.585Z,12.67
2023-01-23T01:41:43.252Z,12.47
2023-01-23T01:47:15.839Z,12.37
2023-01-23T01:49:48.550Z,12.40
2023-01-23T01:52:17.181Z,13.20
2023-01-23T01:54:48.008Z,11.90
2023-01-23T02:00:09.188Z,11.37
2023-01-23T02:02:44.978Z,11.57
2023-01-23T02:05:14.389Z,11.87
2023-01-23T02:07:47.319Z,12.00
2023-01-23T02:13:21.150Z,12.07
2023-01-23T02:15:50.265Z,11.17
2023-01-23T02:18:20.215Z,13.03
2023-01-23T02:20:48.349Z,11.80
2023-01-23T02:26:08.203Z,12.40
2023-01-23T02:31:35.209Z,10.93
2023-01-23T02:34:02.972Z,12.97
2023-01-23T02:36:32.799Z,12.43
2023-01-23T02:39:05.934Z,12.33
2023-01-23T02:44:34.167Z,11.50
2023-01-23T02:47:07.753Z,10.93
2023-01-23T02:49:35.268Z,11.10
2023-01-23T02:52:06.476Z,11.47
2023-01-23T02:57:34.813Z,11.43
2023-01-23T03:03:16.810Z,11.37
2023-01-23T03:05:44.274Z,11.47
2023-01-23T03:08:11.855Z,10.87
2023-01-23T03:10:39.290Z,9.97
2023-01-23T03:15:59.106Z,9.83
2023-01-23T03:18:27.477Z,9.57
2023-01-23T03:20:54.978Z,9.87
2023-01-23T03:23:24.191Z,10.30
2023-01-23T03:29:07.519Z,9.67
2023-01-23T03:31:37.063Z,9.40
2023-01-23T03:34:04.722Z,10.07
2023-01-23T03:36:37.167Z,10.00
2023-01-23T03:41:53.164Z,8.80
2023-01-23T03:44:22.477Z,10.27
2023-01-23T03:46:52.675Z,10.90
2023-01-23T03:49:21.109Z,9.50
2023-01-23T03:54:51.288Z,10.27
2023-01-23T03:57:19.728Z,10.40
2023-01-23T04:00:07.645Z,10.97
2023-01-23T04:02:42.450Z,9.37
2023-01-23T04:05:13.098Z,9.47
2023-01-23T04:07:40.631Z,9.87
2023-01-23T04:12:59.763Z,11.13
2023-01-23T04:15:27.409Z,10.00
2023-01-23T04:17:58.758Z,11.03
2023-01-23T04:20:26.982Z,10.80
2023-01-23T04:25:57.754Z,10.40
2023-01-23T04:28:25.698Z,9.60
2023-01-23T04:30:53.518Z,10.63
2023-01-23T04:33:22.550Z,10.07
2023-01-23T04:38:38.789Z,10.63
2023-01-23T04:41:22.059Z,10.50
2023-01-23T04:43:51.747Z,10.13
2023-01-23T04:46:19.338Z,9.90
2023-01-23T04:51:53.506Z,9.80
2023-01-23T04:57:27.865Z,9.73
2023-01-23T05:00:02.500Z,10.90
2023-01-23T05:02:30.409Z,10.70
2023-01-23T05:04:58.602Z,11.13
2023-01-23T05:10:16.505Z,11.47
2023-01-23T05:12:44.357Z,10.43
2023-01-23T05:15:12.786Z,11.53
2023-01-23T05:17:42.318Z,11.80
2023-01-23T05:23:13.768Z,10.70
2023-01-23T05:25:48.987Z,10.47
2023-01-23T05:28:16.607Z,10.87
2023-01-23T05:30:48.910Z,11.27
2023-01-23T05:36:16.427Z,9.73
2023-01-23T05:41:46.226Z,10.23
2023-01-23T05:44:32.532Z,10.70
2023-01-23T05:47:05.243Z,10.57
2023-01-23T05:49:33.969Z,10.37
2023-01-23T05:54:50.824Z,9.90
2023-01-23T05:57:20.617Z,9.47
2023-01-23T06:00:08.045Z,9.67
2023-01-23T06:02:54.334Z,9.73
2023-01-23T06:05:35.332Z,10.03
2023-01-23T06:08:17.878Z,10.03
2023-01-23T06:13:49.087Z,9.50
2023-01-23T06:16:16.785Z,9.17
2023-01-23T06:18:44.653Z,9.17
2023-01-23T06:21:12.187Z,9.60
2023-01-23T06:26:28.750Z,10.00
2023-01-23T06:28:59.107Z,8.97
2023-01-23T06:31:26.849Z,9.40
2023-01-23T06:33:57.990Z,10.00
2023-01-23T06:39:34.050Z,9.53
2023-01-23T06:42:02.293Z,10.03
2023-01-23T06:44:32.218Z,9.40
2023-01-23T06:47:00.441Z,10.47
2023-01-23T06:52:18.535Z,10.33
2023-01-23T06:54:48.000Z,10.13
2023-01-23T06:57:15.533Z,10.27
2023-01-23T06:59:45.635Z,10.87
2023-01-23T07:04:59.435Z,10.60
2023-01-23T07:07:27.653Z,10.63
2023-01-23T07:09:55.245Z,10.77
2023-01-23T07:12:26.615Z,10.57
2023-01-23T07:17:42.766Z,11.13
2023-01-23T07:23:10.274Z,11.07
2023-01-23T07:25:37.915Z,11.17
2023-01-23T07:28:05.846Z,11.83
2023-01-23T07:30:33.455Z,11.83
2023-01-23T07:36:07.671Z,10.80
2023-01-23T07:38:35.469Z,11.33
2023-01-23T07:43:42.903Z,10.47
2023-01-23T07:49:12.908Z,11.33
2023-01-23T07:51:40.600Z,9.13
2023-01-23T07:54:08.102Z,11.50
2023-01-23T07:56:35.586Z,11.63
2023-01-23T08:01:53.594Z,11.40
2023-01-23T08:04:21.357Z,12.03
2023-01-23T08:06:48.823Z,11.43
2023-01-23T08:09:16.268Z,12.17
2023-01-23T08:14:41.668Z,11.17
2023-01-23T08:17:10.453Z,12.63
2023-01-23T08:19:38.396Z,12.83
2023-01-23T08:22:05.913Z,11.83
2023-01-23T08:27:22.041Z,12.37
2023-01-23T08:29:49.460Z,11.80
2023-01-23T08:32:18.198Z,12.87
2023-01-23T08:34:45.626Z,12.37
2023-01-23T08:40:06.911Z,12.50
2023-01-23T08:45:33.121Z,12.07
2023-01-23T08:48:02.900Z,11.80
2023-01-23T08:50:30.326Z,12.40
2023-01-23T08:52:57.758Z,13.73
2023-01-23T08:58:27.985Z,13.17
2023-01-23T09:00:55.530Z,13.83
2023-01-23T09:03:24.664Z,12.33
2023-01-23T09:05:52.133Z,13.40
2023-01-23T09:11:23.164Z,15.80
2023-01-23T09:13:53.800Z,16.83
2023-01-23T09:16:21.562Z,18.37
2023-01-23T09:18:50.580Z,16.90
2023-01-23T09:24:20.852Z,14.10
2023-01-23T09:26:48.262Z,13.20
2023-01-23T09:29:15.808Z,13.33
2023-01-23T09:31:43.235Z,13.30
2023-01-23T09:37:09.750Z,12.33
2023-01-23T09:42:36.211Z,12.80
2023-01-23T09:45:08.011Z,11.93
2023-01-23T09:47:38.389Z,12.10
2023-01-23T09:50:09.215Z,11.23
2023-01-23T09:55:45.385Z,24.97
2023-01-23T09:58:18.140Z,21.97
2023-01-23T10:00:46.181Z,13.77
2023-01-23T10:03:16.067Z,13.73
2023-01-23T10:08:36.958Z,12.00
2023-01-23T10:11:07.865Z,13.37
2023-01-23T10:13:55.966Z,12.63
2023-01-23T10:16:49.189Z,12.40
2023-01-23T10:19:29.443Z,12.47
2023-01-23T10:22:02.052Z,11.93
2023-01-23T10:27:21.802Z,12.97
2023-01-23T10:29:51.242Z,13.57
2023-01-23T10:32:25.499Z,12.77
2023-01-23T10:34:58.868Z,13.73
2023-01-23T10:40:39.304Z,13.77
2023-01-23T10:46:13.435Z,12.63
2023-01-23T10:48:43.857Z,13.80
2023-01-23T10:51:15.680Z,14.07
2023-01-23T10:53:43.167Z,14.10
2023-01-23T10:58:59.750Z,12.83
2023-01-23T11:01:31.303Z,13.80
2023-01-23T11:04:10.341Z,13.97
2023-01-23T11:06:37.805Z,14.20
2023-01-23T11:12:04.023Z,13.67
2023-01-23T11:14:31.879Z,12.00
2023-01-23T11:17:03.342Z,12.70
2023-01-23T11:19:31.986Z,13.40
2023-01-23T11:24:54.448Z,12.57
2023-01-23T11:30:31.006Z,13.63
2023-01-23T11:33:02.915Z,13.97
2023-01-23T11:35:39.627Z,14.57
2023-01-23T11:38:07.578Z,13.97
2023-01-23T11:43:38.059Z,13.33
2023-01-23T11:49:33.913Z,13.60
2023-01-23T11:52:14.041Z,13.57
2023-01-23T11:54:57.710Z,12.83
2023-01-23T11:57:31.801Z,12.63
2023-01-23T12:03:22.050Z,12.37
2023-01-23T12:08:57.747Z,12.10
2023-01-23T12:11:29.805Z,12.63
2023-01-23T12:14:03.557Z,13.20
2023-01-23T12:16:40.691Z,12.23
2023-01-23T12:21:58.605Z,13.00
2023-01-23T12:27:34.216Z,12.33
2023-01-23T12:30:11.816Z,12.83
2023-01-23T12:32:43.587Z,13.17
2023-01-23T12:35:25.066Z,13.00
2023-01-23T12:40:44.546Z,13.77
2023-01-23T12:43:16.614Z,11.87
2023-01-23T12:45:48.988Z,12.20
2023-01-23T12:48:19.382Z,11.30
2023-01-23T12:53:37.290Z,11.30
2023-01-23T12:59:13.987Z,12.27
2023-01-23T13:01:50.970Z,12.33
2023-01-23T13:04:22.617Z,14.27
2023-01-23T13:07:07.598Z,13.40
2023-01-23T13:12:25.192Z,15.87
2023-01-23T13:15:12.830Z,14.10
2023-01-23T13:18:06.184Z,12.93
2023-01-23T13:21:06.657Z,13.57
2023-01-23T13:23:36.517Z,16.20
2023-01-23T13:26:29.104Z,17.37
2023-01-23T13:31:41.624Z,14.10
2023-01-23T13:37:50.810Z,12.10
2023-01-23T13:40:20.827Z,12.43
2023-01-23T13:42:48.325Z,12.17
2023-01-23T13:45:29.737Z,11.33
2023-01-23T14:22:44.620Z,12.03
2023-01-23T14:28:06.466Z,14.07
2023-01-23T14:30:33.910Z,13.40
2023-01-23T14:33:01.356Z,13.57
2023-01-23T14:35:30.705Z,12.97
2023-01-23T14:40:50.962Z,12.73
2023-01-23T14:43:22.112Z,14.10
2023-01-23T14:45:59.159Z,14.20
2023-01-23T14:48:26.675Z,14.00
2023-01-23T14:53:58.594Z,13.63
2023-01-23T14:56:28.924Z,14.47
2023-01-23T14:58:59.901Z,13.10
2023-01-23T15:01:28.232Z,13.50
2023-01-23T15:04:32.775Z,13.13
2023-01-23T15:07:01.499Z,13.87
2023-01-23T15:12:31.961Z,13.27
2023-01-23T15:15:00.742Z,13.50
2023-01-23T15:17:29.544Z,13.70
2023-01-23T15:19:57.003Z,14.00
2023-01-23T15:25:27.675Z,13.83
2023-01-23T15:27:55.087Z,12.90
2023-01-23T15:30:31.657Z,11.70
2023-01-23T15:32:59.893Z,12.40
2023-01-23T15:38:24.659Z,14.03
2023-01-23T15:40:52.128Z,13.83
2023-01-23T15:43:20.381Z,13.93
2023-01-23T15:45:49.144Z,14.70
2023-01-23T15:48:37.593Z,14.20
2023-01-23T15:51:05.488Z,13.53
2023-01-23T15:53:33.097Z,15.03
2023-01-23T15:56:02.105Z,13.80
2023-01-23T15:58:29.685Z,14.63
2023-01-23T16:03:46.807Z,15.40
2023-01-23T16:09:21.739Z,15.90
2023-01-23T16:11:49.276Z,14.37
2023-01-23T16:14:17.940Z,15.20
2023-01-23T16:16:46.293Z,15.30
2023-01-23T16:22:15.712Z,14.33
2023-01-23T16:24:43.466Z,14.93
2023-01-23T16:27:11.633Z,14.93
2023-01-23T16:29:39.057Z,15.13
2023-01-23T16:35:05.399Z,14.63
2023-01-23T16:37:34.691Z,14.60
2023-01-23T16:40:02.119Z,15.67
2023-01-23T16:42:31.030Z,15.10
2023-01-23T16:47:47.110Z,16.93
2023-01-23T16:50:15.874Z,14.97
2023-01-23T16:52:55.240Z,16.13
2023-01-23T16:55:24.604Z,15.00
2023-01-23T17:00:42.116Z,15.33
2023-01-23T17:03:10.698Z,15.90
2023-01-23T17:05:38.169Z,16.37
2023-01-23T17:08:17.988Z,15.00
2023-01-23T17:13:28.407Z,15.70
2023-01-23T17:15:56.714Z,16.00
2023-01-23T17:18:26.168Z,18.60
2023-01-23T17:20:55.028Z,17.50
2023-01-23T17:26:15.064Z,16.93
2023-01-23T17:31:38.841Z,16.37
2023-01-23T17:34:06.755Z,15.93
2023-01-23T17:36:34.304Z,15.77
2023-01-23T17:39:02.117Z,12.90
2023-01-23T17:44:33.163Z,12.40
2023-01-23T17:47:00.658Z,12.30
2023-01-23T17:49:29.904Z,11.03
2023-01-23T17:51:58.584Z,11.97
2023-01-23T17:57:28.867Z,12.53
2023-01-23T17:59:57.646Z,13.50
2023-01-23T18:02:28.424Z,13.80
2023-01-23T18:04:56.390Z,14.30
2023-01-23T18:10:24.465Z,13.67
2023-01-23T18:12:58.584Z,13.73
2023-01-23T18:15:32.481Z,15.00
2023-01-23T18:18:13.316Z,12.93
2023-01-23T18:20:46.660Z,14.57
2023-01-23T18:23:14.693Z,13.07
2023-01-23T18:28:48.143Z,13.00
2023-01-23T18:31:21.656Z,14.43
2023-01-23T18:36:33.961Z,13.77
2023-01-23T18:42:15.573Z,14.80
2023-01-23T18:47:43.540Z,12.97
2023-01-23T18:50:17.567Z,14.43
2023-01-23T18:52:52.255Z,14.57
2023-01-23T18:55:25.519Z,14.70
2023-01-23T19:00:45.893Z,12.73
2023-01-23T19:03:16.407Z,13.60
2023-01-23T19:05:44.691Z,14.43
2023-01-23T19:08:27.857Z,14.37
2023-01-23T19:14:02.143Z,13.70
2023-01-23T19:19:37.268Z,17.23
2023-01-23T19:22:10.106Z,15.60
2023-01-23T19:24:38.065Z,15.60
2023-01-23T19:27:06.135Z,14.00
2023-01-23T19:32:22.453Z,12.30
2023-01-23T19:34:51.253Z,13.57
2023-01-23T19:39:57.647Z,13.97
2023-01-23T19:45:27.912Z,12.50
2023-01-23T19:47:55.348Z,13.43
2023-01-23T19:50:23.310Z,13.60
2023-01-23T19:52:52.369Z,13.70
2023-01-23T19:58:10.071Z,14.40
2023-01-23T20:00:37.497Z,13.73
2023-01-23T20:03:05.165Z,14.27
2023-01-23T20:05:34.274Z,13.50
2023-01-23T20:10:57.590Z,13.27
2023-01-23T20:13:26.371Z,13.80
2023-01-23T20:15:53.788Z,12.23
2023-01-23T20:18:21.918Z,14.20
2023-01-23T20:23:40.119Z,13.47
2023-01-23T20:26:07.611Z,13.60
2023-01-23T20:29:08.824Z,13.20
2023-01-23T20:31:36.404Z,14.00
2023-01-23T20:34:04.153Z,13.17
2023-01-23T20:36:31.658Z,12.60
2023-01-23T20:41:47.612Z,12.13
2023-01-23T20:44:16.736Z,14.20
2023-01-23T20:46:44.181Z,13.50
2023-01-23T20:49:13.018Z,12.63
2023-01-23T20:54:42.558Z,12.97
2023-01-23T20:57:09.988Z,13.73
2023-01-23T20:59:37.816Z,13.30
2023-01-23T21:02:23.627Z,12.63
2023-01-23T21:07:49.586Z,12.70
2023-01-23T21:10:17.582Z,12.47
2023-01-23T21:12:45.175Z,13.27
2023-01-23T21:15:13.945Z,13.07
2023-01-23T21:20:41.105Z,12.80
2023-01-23T21:23:08.569Z,13.27
2023-01-23T21:25:36.296Z,12.50
2023-01-23T21:28:03.754Z,13.30
2023-01-23T21:33:20.933Z,13.83
2023-01-23T21:35:49.226Z,15.67
2023-01-23T21:38:16.723Z,15.73
2023-01-23T21:40:44.297Z,13.93
2023-01-23T21:46:03.242Z,13.70
2023-01-23T21:51:32.125Z,12.77
2023-01-23T21:53:59.624Z,13.53
2023-01-23T21:56:27.060Z,13.17
2023-01-23T21:58:55.216Z,14.17
2023-01-23T22:04:14.199Z,12.17
2023-01-23T22:06:43.511Z,12.67
2023-01-23T22:09:11.682Z,13.03
2023-01-23T22:11:39.110Z,12.40
2023-01-23T22:16:54.660Z,12.33
2023-01-23T22:19:25.578Z,13.17
2023-01-23T22:21:53.993Z,12.60
2023-01-23T22:24:21.478Z,12.30
2023-01-23T22:29:37.600Z,12.57
2023-01-23T22:32:05.441Z,13.10
2023-01-23T22:34:34.298Z,12.23
2023-01-23T22:37:01.733Z,11.17
2023-01-23T22:42:18.909Z,11.43
2023-01-23T22:44:46.360Z,10.40
2023-01-23T22:47:13.911Z,10.60
2023-01-23T22:49:43.831Z,10.23
2023-01-23T22:54:59.585Z,9.83
2023-01-23T22:57:26.986Z,9.73
2023-01-23T22:59:54.386Z,10.37
2023-01-23T23:02:21.827Z,11.80
2023-01-23T23:07:38.961Z,9.10
2023-01-23T23:10:08.010Z,9.20
2023-01-23T23:12:35.618Z,10.83
2023-01-23T23:15:03.694Z,10.50
2023-01-23T23:20:33.585Z,10.43
2023-01-23T23:23:02.559Z,9.47
2023-01-23T23:28:00.653Z,9.37
2023-01-23T23:33:30.637Z,10.97
2023-01-23T23:35:58.113Z,10.33
2023-01-23T23:38:26.920Z,9.30
2023-01-23T23:40:55.693Z,9.33
2023-01-23T23:46:21.562Z,9.67
2023-01-23T23:48:48.986Z,9.33
2023-01-23T23:51:18.587Z,9.23
2023-01-23T23:53:47.448Z,9.40
2023-01-23T23:59:08.079Z,9.17
